createdAt,value
2018-07-02T00:00:39.199Z,18.05
2018-07-02T00:01:39.116Z,18.06
2018-07-02T00:02:39.003Z,18.15
2018-07-02T00:03:38.997Z,18.06
2018-07-02T00:04:38.996Z,18.00
2018-07-02T00:05:38.877Z,18.03
2018-07-02T00:06:38.878Z,18.05
2018-07-02T00:07:38.875Z,18.06
2018-07-02T00:08:38.759Z,18.05
2018-07-02T00:09:38.758Z,18.05
2018-07-02T00:10:38.757Z,17.98
2018-07-02T00:11:38.673Z,17.98
2018-07-02T00:12:38.635Z,18.02
2018-07-02T00:13:38.638Z,17.95
2018-07-02T00:14:38.515Z,17.97
2018-07-02T00:15:38.514Z,17.90
2018-07-02T00:16:38.514Z,17.95
2018-07-02T00:17:38.400Z,17.88
2018-07-02T00:18:38.392Z,17.84
2018-07-02T00:19:38.395Z,17.86
2018-07-02T00:20:38.273Z,17.82
2018-07-02T00:21:38.273Z,17.86
2018-07-02T00:22:38.275Z,17.84
2018-07-02T00:23:38.152Z,17.80
2018-07-02T00:24:38.153Z,17.80
2018-07-02T00:25:38.151Z,17.72
2018-07-02T00:26:38.031Z,17.75
2018-07-02T00:27:38.033Z,17.72
2018-07-02T00:28:38.030Z,17.72
2018-07-02T00:29:37.916Z,17.75
2018-07-02T00:30:37.910Z,17.71
2018-07-02T00:31:37.911Z,17.72
2018-07-02T00:32:37.792Z,17.69
2018-07-02T00:33:37.789Z,17.69
2018-07-02T00:34:37.791Z,17.73
2018-07-02T00:35:37.672Z,17.69
2018-07-02T00:36:37.668Z,17.66
2018-07-02T00:37:37.669Z,17.54
2018-07-02T00:38:37.550Z,17.59
2018-07-02T00:39:37.547Z,17.54
2018-07-02T00:40:37.549Z,17.54
2018-07-02T00:41:37.428Z,17.60
2018-07-02T00:42:37.461Z,17.56
2018-07-02T00:43:37.427Z,17.54
2018-07-02T00:44:37.311Z,17.57
2018-07-02T00:45:37.308Z,17.54
2018-07-02T00:46:37.266Z,17.53
2018-07-02T00:47:37.187Z,17.54
2018-07-02T00:48:37.186Z,17.46
2018-07-02T00:49:37.065Z,17.57
2018-07-02T00:50:37.066Z,17.46
2018-07-02T00:51:37.073Z,17.47
2018-07-02T00:52:36.946Z,17.49
2018-07-02T00:53:36.944Z,17.46
2018-07-02T00:54:36.945Z,17.52
2018-07-02T00:55:36.824Z,17.52
2018-07-02T00:56:36.824Z,17.50
2018-07-02T00:57:36.823Z,17.38
2018-07-02T00:58:36.707Z,17.38
2018-07-02T00:59:36.703Z,17.35
2018-07-02T01:00:36.709Z,17.38
2018-07-02T01:01:36.582Z,17.41
2018-07-02T01:02:36.583Z,17.39
2018-07-02T01:03:36.583Z,17.31
2018-07-02T01:04:36.467Z,17.30
2018-07-02T01:05:36.463Z,17.46
2018-07-02T01:06:36.462Z,17.41
2018-07-02T01:07:36.342Z,17.34
2018-07-02T01:08:36.348Z,17.28
2018-07-02T01:09:36.341Z,17.34
2018-07-02T01:10:36.223Z,17.32
2018-07-02T01:11:36.301Z,17.34
2018-07-02T01:12:36.221Z,17.28
2018-07-02T01:13:36.101Z,17.34
2018-07-02T01:14:36.100Z,17.24
2018-07-02T01:15:36.102Z,17.23
2018-07-02T01:16:35.980Z,17.23
2018-07-02T01:17:35.979Z,17.24
2018-07-02T01:18:35.982Z,17.24
2018-07-02T01:19:35.861Z,17.28
2018-07-02T01:20:35.865Z,17.30
2018-07-02T01:21:35.858Z,17.23
2018-07-02T01:22:35.738Z,17.27
2018-07-02T01:23:35.737Z,17.20
2018-07-02T01:24:35.696Z,17.19
2018-07-02T01:25:35.616Z,17.12
2018-07-02T01:26:35.616Z,17.17
2018-07-02T01:27:35.497Z,17.19
2018-07-02T01:28:35.496Z,17.14
2018-07-02T01:29:35.497Z,17.14
2018-07-02T01:30:35.377Z,17.12
2018-07-02T01:31:35.377Z,17.16
2018-07-02T01:32:35.391Z,17.07
2018-07-02T01:33:35.257Z,17.16
2018-07-02T01:34:35.256Z,17.07
2018-07-02T01:35:35.256Z,17.16
2018-07-02T01:36:35.137Z,16.98
2018-07-02T01:37:35.136Z,17.09
2018-07-02T01:38:35.138Z,16.98
2018-07-02T01:39:35.421Z,17.05
2018-07-02T01:40:35.655Z,17.07
2018-07-02T01:41:35.014Z,16.99
2018-07-02T01:42:34.895Z,16.92
2018-07-02T01:43:34.896Z,17.01
2018-07-02T01:44:34.893Z,16.91
2018-07-02T01:45:34.774Z,16.91
2018-07-02T01:46:34.773Z,16.91
2018-07-02T01:47:34.774Z,16.94
2018-07-02T01:48:34.652Z,16.89
2018-07-02T01:49:34.651Z,16.89
2018-07-02T01:50:34.650Z,16.87
2018-07-02T01:51:34.533Z,16.89
2018-07-02T01:52:34.538Z,16.82
2018-07-02T01:53:34.533Z,16.83
2018-07-02T01:54:34.418Z,16.83
2018-07-02T01:55:34.410Z,16.84
2018-07-02T01:56:34.417Z,16.82
2018-07-02T01:57:34.295Z,16.86
2018-07-02T01:58:34.293Z,16.74
2018-07-02T01:59:34.288Z,16.84
2018-07-02T02:00:34.169Z,16.77
2018-07-02T02:01:34.170Z,16.66
2018-07-02T02:02:34.050Z,16.79
2018-07-02T02:03:34.049Z,16.82
2018-07-02T02:04:34.054Z,16.79
2018-07-02T02:05:33.932Z,16.79
2018-07-02T02:06:33.937Z,16.69
2018-07-02T02:07:33.928Z,16.72
2018-07-02T02:08:33.809Z,16.76
2018-07-02T02:09:33.807Z,16.69
2018-07-02T02:10:33.809Z,16.65
2018-07-02T02:11:33.687Z,16.64
2018-07-02T02:12:33.689Z,16.68
2018-07-02T02:13:33.690Z,16.65
2018-07-02T02:14:33.569Z,16.61
2018-07-02T02:15:33.568Z,16.61
2018-07-02T02:16:33.568Z,16.62
2018-07-02T02:17:33.445Z,16.64
2018-07-02T02:18:33.448Z,16.57
2018-07-02T02:19:33.446Z,16.59
2018-07-02T02:20:33.326Z,16.55
2018-07-02T02:21:33.325Z,16.55
2018-07-02T02:22:33.323Z,16.54
2018-07-02T02:23:33.251Z,16.51
2018-07-02T02:24:33.204Z,16.51
2018-07-02T02:25:33.203Z,16.51
2018-07-02T02:26:33.092Z,16.44
2018-07-02T02:27:33.084Z,16.49
2018-07-02T02:28:33.041Z,16.44
2018-07-02T02:29:32.966Z,16.49
2018-07-02T02:30:32.967Z,16.46
2018-07-02T02:31:32.845Z,16.46
2018-07-02T02:32:32.850Z,16.51
2018-07-02T02:33:32.848Z,16.34
2018-07-02T02:34:32.721Z,16.34
2018-07-02T02:35:32.728Z,16.34
2018-07-02T02:36:32.722Z,16.32
2018-07-02T02:37:32.604Z,16.25
2018-07-02T02:38:32.605Z,16.37
2018-07-02T02:39:32.607Z,16.36
2018-07-02T02:40:32.481Z,16.39
2018-07-02T02:41:32.480Z,16.32
2018-07-02T02:42:32.481Z,16.25
2018-07-02T02:43:32.362Z,16.28
2018-07-02T02:44:32.358Z,16.22
2018-07-02T02:45:32.359Z,16.17
2018-07-02T02:46:32.241Z,16.13
2018-07-02T02:47:32.242Z,16.17
2018-07-02T02:48:32.237Z,16.22
2018-07-02T02:49:32.119Z,16.18
2018-07-02T02:50:32.118Z,16.28
2018-07-02T02:51:32.121Z,16.22
2018-07-02T02:52:32.001Z,16.17
2018-07-02T02:53:32.004Z,16.13
2018-07-02T02:54:31.961Z,16.16
2018-07-02T02:55:31.878Z,16.10
2018-07-02T02:56:31.883Z,16.17
2018-07-02T02:57:31.756Z,16.12
2018-07-02T02:58:31.762Z,16.05
2018-07-02T02:59:31.757Z,16.05
2018-07-02T03:00:31.637Z,16.00
2018-07-02T03:01:31.640Z,16.00
2018-07-02T03:02:31.636Z,15.98
2018-07-02T03:03:31.518Z,15.94
2018-07-02T03:04:31.519Z,15.96
2018-07-02T03:05:31.515Z,15.90
2018-07-02T03:06:31.401Z,15.94
2018-07-02T03:07:31.396Z,15.87
2018-07-02T03:08:31.398Z,15.91
2018-07-02T03:09:31.275Z,15.85
2018-07-02T03:10:31.277Z,15.78
2018-07-02T03:11:31.273Z,15.85
2018-07-02T03:12:31.156Z,15.83
2018-07-02T03:13:31.154Z,15.80
2018-07-02T03:14:31.152Z,15.80
2018-07-02T03:15:31.033Z,15.72
2018-07-02T03:16:31.035Z,15.75
2018-07-02T03:17:31.029Z,15.67
2018-07-02T03:18:30.913Z,15.69
2018-07-02T03:19:30.912Z,15.59
2018-07-02T03:20:30.805Z,15.59
2018-07-02T03:21:30.793Z,15.63
2018-07-02T03:22:30.795Z,15.54
2018-07-02T03:23:30.670Z,15.51
2018-07-02T03:24:30.670Z,15.45
2018-07-02T03:25:30.676Z,15.60
2018-07-02T03:26:30.553Z,15.50
2018-07-02T03:27:30.554Z,15.50
2018-07-02T03:28:30.557Z,15.50
2018-07-02T03:29:30.430Z,15.41
2018-07-02T03:30:30.433Z,15.36
2018-07-02T03:31:30.430Z,15.35
2018-07-02T03:32:30.309Z,15.39
2018-07-02T03:33:30.314Z,15.39
2018-07-02T03:34:30.309Z,15.37
2018-07-02T03:35:30.192Z,15.39
2018-07-02T03:36:30.190Z,15.33
2018-07-02T03:37:30.191Z,15.33
2018-07-02T03:38:30.067Z,15.32
2018-07-02T03:39:30.068Z,15.32
2018-07-02T03:40:30.026Z,15.36
2018-07-02T03:41:29.948Z,15.36
2018-07-02T03:42:29.946Z,15.30
2018-07-02T03:43:29.826Z,15.29
2018-07-02T03:44:29.825Z,15.32
2018-07-02T03:45:29.827Z,15.30
2018-07-02T03:46:29.706Z,15.32
2018-07-02T03:47:29.706Z,15.33
2018-07-02T03:48:29.708Z,15.30
2018-07-02T03:49:29.595Z,15.27
2018-07-02T03:50:29.590Z,15.27
2018-07-02T03:51:29.588Z,15.30
2018-07-02T03:52:29.469Z,15.22
2018-07-02T03:53:29.465Z,15.14
2018-07-02T03:54:29.464Z,15.22
2018-07-02T03:55:29.345Z,15.26
2018-07-02T03:56:29.350Z,15.26
2018-07-02T03:57:29.349Z,15.22
2018-07-02T03:58:29.227Z,15.17
2018-07-02T03:59:29.224Z,15.22
2018-07-02T04:00:29.225Z,15.12
2018-07-02T04:01:29.104Z,15.15
2018-07-02T04:02:29.106Z,15.11
2018-07-02T04:03:28.984Z,15.11
2018-07-02T04:04:28.983Z,15.14
2018-07-02T04:05:28.986Z,15.11
2018-07-02T04:06:28.869Z,15.18
2018-07-02T04:07:28.867Z,15.05
2018-07-02T04:08:28.866Z,15.12
2018-07-02T04:09:28.745Z,15.04
2018-07-02T04:10:28.744Z,15.04
2018-07-02T04:11:28.742Z,14.99
2018-07-02T04:12:28.623Z,15.02
2018-07-02T04:13:28.620Z,15.00
2018-07-02T04:14:28.620Z,14.99
2018-07-02T04:15:28.501Z,15.07
2018-07-02T04:16:28.498Z,15.07
2018-07-02T04:17:28.501Z,15.10
2018-07-02T04:18:28.381Z,15.02
2018-07-02T04:19:28.377Z,15.02
2018-07-02T04:20:28.338Z,15.05
2018-07-02T04:21:28.261Z,15.07
2018-07-02T04:22:28.258Z,15.10
2018-07-02T04:23:28.139Z,14.99
2018-07-02T04:24:28.138Z,15.11
2018-07-02T04:25:28.139Z,15.07
2018-07-02T04:26:28.032Z,15.00
2018-07-02T04:27:28.019Z,15.02
2018-07-02T04:28:28.016Z,15.08
2018-07-02T04:29:27.900Z,15.10
2018-07-02T04:30:27.896Z,15.17
2018-07-02T04:31:27.897Z,15.08
2018-07-02T04:32:27.777Z,15.10
2018-07-02T04:33:27.775Z,15.12
2018-07-02T04:34:27.778Z,15.07
2018-07-02T04:35:27.655Z,15.19
2018-07-02T04:36:27.655Z,15.18
2018-07-02T04:37:27.656Z,15.26
2018-07-02T04:38:27.535Z,15.27
2018-07-02T04:39:27.543Z,15.19
2018-07-02T04:40:27.496Z,15.22
2018-07-02T04:41:27.422Z,15.29
2018-07-02T04:42:27.415Z,15.32
2018-07-02T04:43:27.297Z,15.36
2018-07-02T04:44:27.299Z,15.35
2018-07-02T04:45:27.293Z,15.43
2018-07-02T04:46:27.173Z,15.44
2018-07-02T04:47:27.174Z,15.37
2018-07-02T04:48:27.194Z,15.45
2018-07-02T04:49:27.052Z,15.45
2018-07-02T04:50:27.053Z,15.48
2018-07-02T04:51:27.058Z,15.52
2018-07-02T04:52:26.933Z,15.51
2018-07-02T04:53:26.933Z,15.52
2018-07-02T04:54:26.937Z,15.50
2018-07-02T04:55:26.811Z,15.54
2018-07-02T04:56:26.811Z,15.48
2018-07-02T04:57:26.811Z,15.60
2018-07-02T04:58:26.695Z,15.59
2018-07-02T04:59:26.690Z,15.63
2018-07-02T05:00:26.648Z,15.62
2018-07-02T05:01:26.575Z,15.63
2018-07-02T05:02:26.572Z,15.67
2018-07-02T05:03:26.453Z,15.70
2018-07-02T05:04:26.461Z,15.76
2018-07-02T05:05:26.455Z,15.67
2018-07-02T05:06:26.329Z,15.75
2018-07-02T05:07:26.328Z,15.75
2018-07-02T05:08:26.330Z,15.73
2018-07-02T05:09:26.211Z,15.81
2018-07-02T05:10:26.211Z,15.85
2018-07-02T05:11:26.209Z,15.87
2018-07-02T05:12:26.091Z,15.94
2018-07-02T05:13:26.096Z,15.94
2018-07-02T05:14:26.090Z,15.94
2018-07-02T05:15:25.972Z,16.05
2018-07-02T05:16:25.966Z,16.09
2018-07-02T05:17:25.966Z,16.16
2018-07-02T05:18:25.847Z,16.17
2018-07-02T05:19:25.852Z,16.10
2018-07-02T05:20:25.845Z,16.16
2018-07-02T05:21:25.727Z,16.21
2018-07-02T05:22:25.725Z,16.28
2018-07-02T05:23:25.612Z,16.10
2018-07-02T05:24:25.608Z,16.17
2018-07-02T05:25:25.607Z,16.28
2018-07-02T05:26:25.484Z,16.26
2018-07-02T05:27:25.486Z,16.29
2018-07-02T05:28:25.484Z,16.29
2018-07-02T05:29:25.366Z,16.37
2018-07-02T05:30:25.362Z,16.44
2018-07-02T05:31:25.389Z,16.58
2018-07-02T05:32:25.249Z,16.50
2018-07-02T05:33:25.245Z,16.58
2018-07-02T05:34:25.253Z,16.62
2018-07-02T05:35:25.121Z,16.64
2018-07-02T05:36:25.122Z,16.66
2018-07-02T05:37:25.121Z,16.73
2018-07-02T05:38:25.008Z,16.74
2018-07-02T05:39:25.003Z,16.86
2018-07-02T05:40:24.999Z,16.74
2018-07-02T05:41:24.881Z,16.87
2018-07-02T05:42:24.885Z,16.89
2018-07-02T05:43:24.762Z,16.95
2018-07-02T05:44:24.760Z,16.87
2018-07-02T05:45:24.759Z,16.94
2018-07-02T05:46:24.640Z,16.98
2018-07-02T05:47:24.644Z,17.10
2018-07-02T05:49:24.519Z,17.07
2018-07-02T05:50:24.518Z,17.14
2018-07-02T05:51:24.523Z,17.16
2018-07-02T05:52:24.398Z,17.19
2018-07-02T05:53:24.402Z,17.22
2018-07-02T05:54:24.405Z,17.24
2018-07-02T05:55:24.277Z,17.31
2018-07-02T05:56:24.278Z,17.34
2018-07-02T05:57:24.282Z,17.28
2018-07-02T05:58:24.157Z,17.30
2018-07-02T05:59:24.156Z,17.39
2018-07-02T06:00:24.219Z,17.38
2018-07-02T06:01:24.037Z,17.52
2018-07-02T06:02:24.038Z,17.53
2018-07-02T06:03:24.038Z,17.50
2018-07-02T06:04:23.921Z,17.52
2018-07-02T06:05:23.917Z,17.57
2018-07-02T06:06:23.877Z,17.68
2018-07-02T06:07:23.794Z,17.66
2018-07-02T06:08:23.796Z,17.68
2018-07-02T06:09:23.678Z,17.72
2018-07-02T06:10:23.674Z,17.79
2018-07-02T06:11:23.862Z,17.82
2018-07-02T06:12:23.557Z,17.79
2018-07-02T06:13:23.553Z,17.94
2018-07-02T06:14:23.555Z,17.94
2018-07-02T06:15:23.435Z,17.97
2018-07-02T06:16:23.471Z,17.93
2018-07-02T06:17:23.435Z,18.05
2018-07-02T06:18:23.322Z,18.02
2018-07-02T06:19:23.312Z,18.03
2018-07-02T06:20:23.311Z,18.13
2018-07-02T06:21:23.192Z,18.11
2018-07-02T06:22:23.196Z,18.12
2018-07-02T06:23:23.191Z,18.18
2018-07-02T06:24:23.071Z,18.28
2018-07-02T06:25:23.070Z,18.31
2018-07-02T06:26:23.070Z,18.39
2018-07-02T06:27:22.950Z,18.33
2018-07-02T06:28:22.953Z,18.37
2018-07-02T06:29:22.950Z,18.46
2018-07-02T06:30:22.858Z,18.46
2018-07-02T06:31:22.829Z,18.61
2018-07-02T06:32:22.829Z,18.57
2018-07-02T06:33:22.709Z,18.68
2018-07-02T06:34:22.710Z,18.57
2018-07-02T06:35:22.708Z,18.67
2018-07-02T06:36:22.593Z,18.71
2018-07-02T06:37:22.589Z,18.71
2018-07-02T06:38:22.589Z,18.79
2018-07-02T06:39:22.467Z,18.83
2018-07-02T06:40:22.467Z,18.89
2018-07-02T06:41:22.425Z,18.91
2018-07-02T06:42:22.348Z,18.97
2018-07-02T06:43:22.347Z,19.05
2018-07-02T06:44:22.304Z,19.12
2018-07-02T06:45:22.230Z,19.12
2018-07-02T06:46:22.226Z,19.11
2018-07-02T06:47:22.106Z,19.27
2018-07-02T06:48:22.137Z,19.29
2018-07-02T06:49:22.107Z,19.24
2018-07-02T06:50:21.986Z,19.29
2018-07-02T06:51:21.985Z,19.39
2018-07-02T06:52:21.985Z,19.44
2018-07-02T06:53:21.865Z,19.55
2018-07-02T06:54:21.864Z,19.56
2018-07-02T06:55:21.863Z,19.57
2018-07-02T06:56:21.746Z,19.70
2018-07-02T06:57:21.743Z,19.67
2018-07-02T06:58:21.743Z,19.72
2018-07-02T06:59:21.622Z,19.74
2018-07-02T07:00:21.624Z,19.89
2018-07-02T07:01:21.623Z,19.82
2018-07-02T07:02:21.501Z,19.97
2018-07-02T07:03:21.502Z,19.92
2018-07-02T07:04:21.503Z,20.00
2018-07-02T07:05:21.385Z,19.96
2018-07-02T07:06:21.381Z,20.03
2018-07-02T07:07:21.380Z,20.11
2018-07-02T07:08:21.262Z,20.08
2018-07-02T07:09:21.261Z,20.14
2018-07-02T07:10:21.264Z,20.24
2018-07-02T07:11:21.140Z,20.21
2018-07-02T07:12:21.140Z,20.36
2018-07-02T07:13:21.140Z,20.33
2018-07-02T07:14:21.019Z,20.33
2018-07-02T07:15:21.026Z,20.40
2018-07-02T07:16:21.025Z,20.48
2018-07-02T07:17:20.899Z,20.40
2018-07-02T07:18:20.900Z,20.53
2018-07-02T07:19:20.900Z,20.50
2018-07-02T07:20:20.783Z,20.53
2018-07-02T07:21:20.779Z,20.52
2018-07-02T07:22:20.778Z,20.68
2018-07-02T07:23:20.660Z,20.70
2018-07-02T07:24:20.662Z,20.74
2018-07-02T07:25:20.657Z,20.73
2018-07-02T07:26:20.541Z,20.86
2018-07-02T07:27:20.539Z,20.93
2018-07-02T07:28:20.535Z,21.01
2018-07-02T07:29:20.416Z,21.01
2018-07-02T07:30:20.415Z,21.07
2018-07-02T07:31:20.423Z,21.15
2018-07-02T07:32:20.294Z,21.11
2018-07-02T07:33:20.299Z,21.26
2018-07-02T07:34:20.294Z,21.22
2018-07-02T07:35:20.174Z,21.25
2018-07-02T07:36:20.173Z,21.37
2018-07-02T07:37:20.178Z,21.25
2018-07-02T07:38:20.055Z,21.47
2018-07-02T07:39:20.055Z,21.44
2018-07-02T07:40:20.059Z,21.43
2018-07-02T07:41:19.940Z,21.53
2018-07-02T07:42:19.934Z,21.53
2018-07-02T07:43:19.934Z,21.58
2018-07-02T07:44:19.814Z,21.62
2018-07-02T07:45:19.815Z,21.70
2018-07-02T07:46:19.812Z,21.72
2018-07-02T07:47:19.692Z,21.74
2018-07-02T07:48:19.691Z,21.83
2018-07-02T07:49:19.692Z,21.89
2018-07-02T07:50:19.570Z,21.91
2018-07-02T07:51:19.571Z,21.92
2018-07-02T07:52:19.572Z,22.06
2018-07-02T07:53:19.569Z,22.00
2018-07-02T07:54:19.457Z,22.07
2018-07-02T07:55:19.452Z,22.16
2018-07-02T07:56:19.408Z,22.19
2018-07-02T07:57:19.336Z,22.25
2018-07-02T07:58:19.328Z,22.21
2018-07-02T07:59:19.329Z,22.26
2018-07-02T08:00:19.207Z,22.30
2018-07-02T08:01:19.208Z,22.31
2018-07-02T08:02:19.209Z,22.33
2018-07-02T08:03:19.088Z,22.49
2018-07-02T08:04:19.088Z,22.37
2018-07-02T08:05:19.122Z,22.47
2018-07-02T08:06:18.967Z,22.58
2018-07-02T08:07:18.972Z,22.62
2018-07-02T08:08:18.968Z,22.71
2018-07-02T08:09:18.846Z,22.70
2018-07-02T08:10:18.845Z,22.80
2018-07-02T08:11:18.848Z,22.88
2018-07-02T08:12:18.738Z,23.04
2018-07-02T08:13:18.818Z,23.10
2018-07-02T08:14:18.724Z,23.18
2018-07-02T08:15:18.604Z,23.21
2018-07-02T08:16:18.602Z,23.36
2018-07-02T08:17:18.606Z,23.48
2018-07-02T08:18:18.483Z,23.58
2018-07-02T08:19:18.567Z,23.66
2018-07-02T08:20:18.484Z,23.70
2018-07-02T08:21:18.363Z,23.85
2018-07-02T08:22:18.361Z,23.81
2018-07-02T08:23:18.364Z,23.99
2018-07-02T08:24:18.241Z,23.96
2018-07-02T08:25:18.245Z,24.13
2018-07-02T08:26:18.241Z,24.26
2018-07-02T08:27:18.202Z,24.31
2018-07-02T08:28:18.120Z,24.34
2018-07-02T08:29:18.121Z,24.51
2018-07-02T08:30:18.120Z,24.50
2018-07-02T08:31:18.001Z,24.66
2018-07-02T08:32:17.999Z,24.81
2018-07-02T08:33:18.039Z,24.84
2018-07-02T08:34:17.880Z,24.92
2018-07-02T08:35:17.879Z,24.89
2018-07-02T08:36:17.884Z,25.06
2018-07-02T08:37:17.760Z,25.12
2018-07-02T08:38:17.759Z,25.19
2018-07-02T08:39:17.759Z,25.26
2018-07-02T08:40:17.641Z,25.37
2018-07-02T08:41:17.639Z,25.37
2018-07-02T08:42:17.638Z,25.48
2018-07-02T08:43:17.519Z,25.58
2018-07-02T08:44:17.521Z,25.66
2018-07-02T08:45:17.517Z,25.70
2018-07-02T08:46:17.475Z,25.86
2018-07-02T08:47:17.397Z,25.86
2018-07-02T08:48:17.395Z,25.96
2018-07-02T08:49:17.395Z,26.04
2018-07-02T08:50:17.277Z,26.01
2018-07-02T08:51:17.275Z,26.03
2018-07-02T08:52:17.275Z,26.15
2018-07-02T08:53:17.154Z,26.18
2018-07-02T08:54:17.154Z,26.23
2018-07-02T08:55:17.157Z,26.27
2018-07-02T08:56:17.039Z,26.37
2018-07-02T08:57:17.036Z,26.42
2018-07-02T08:58:17.067Z,26.59
2018-07-02T08:59:16.913Z,26.61
2018-07-02T09:00:16.912Z,26.66
2018-07-02T09:01:16.912Z,26.78
2018-07-02T09:02:16.912Z,26.83
2018-07-02T09:03:16.794Z,26.85
2018-07-02T09:04:16.790Z,26.91
2018-07-02T09:05:16.791Z,26.93
2018-07-02T09:06:16.671Z,26.93
2018-07-02T09:07:16.671Z,26.93
2018-07-02T09:08:16.672Z,27.11
2018-07-02T09:09:16.552Z,27.11
2018-07-02T09:10:16.550Z,27.15
2018-07-02T09:11:16.552Z,27.15
2018-07-02T09:12:16.430Z,27.22
2018-07-02T09:13:16.431Z,27.18
2018-07-02T09:14:16.428Z,27.20
2018-07-02T09:15:16.429Z,27.28
2018-07-02T09:16:16.396Z,27.38
2018-07-02T09:17:16.312Z,27.43
2018-07-02T09:18:16.308Z,27.44
2018-07-02T09:19:16.186Z,27.40
2018-07-02T09:20:16.188Z,27.48
2018-07-02T09:21:16.187Z,27.58
2018-07-02T09:22:16.067Z,27.58
2018-07-02T09:23:16.069Z,27.76
2018-07-02T09:24:16.068Z,27.73
2018-07-02T09:25:16.068Z,27.79
2018-07-02T09:26:15.948Z,27.90
2018-07-02T09:27:15.949Z,28.01
2018-07-02T09:28:15.948Z,27.85
2018-07-02T09:29:15.829Z,27.98
2018-07-02T09:30:15.828Z,27.93
2018-07-02T09:31:15.908Z,27.93
2018-07-02T09:32:15.760Z,27.98
2018-07-02T09:33:15.703Z,27.98
2018-07-02T09:35:15.661Z,28.13
2018-07-02T09:36:15.591Z,28.12
2018-07-02T09:37:15.582Z,28.19
2018-07-02T09:38:15.584Z,28.28
2018-07-02T09:39:15.477Z,28.28
2018-07-02T09:40:15.464Z,28.37
2018-07-02T09:41:15.465Z,28.38
2018-07-02T09:42:15.345Z,28.46
2018-07-02T09:43:15.341Z,28.53
2018-07-02T09:44:15.341Z,28.60
2018-07-02T09:45:15.340Z,28.59
2018-07-02T09:46:15.225Z,28.72
2018-07-02T09:47:15.225Z,28.80
2018-07-02T09:48:15.222Z,28.77
2018-07-02T09:49:15.103Z,28.84
2018-07-02T09:50:15.104Z,28.89
2018-07-02T09:51:15.102Z,28.94
2018-07-02T09:52:14.980Z,28.93
2018-07-02T09:53:14.981Z,28.92
2018-07-02T09:54:14.980Z,28.97
2018-07-02T09:55:14.981Z,29.15
2018-07-02T09:56:14.860Z,29.15
2018-07-02T09:57:14.861Z,29.28
2018-07-02T09:58:14.858Z,29.22
2018-07-02T09:59:14.739Z,29.34
2018-07-02T10:00:14.741Z,29.40
2018-07-02T10:01:14.737Z,29.47
2018-07-02T10:02:14.617Z,29.50
2018-07-02T10:03:14.619Z,29.52
2018-07-02T10:04:14.615Z,29.57
2018-07-02T10:05:14.616Z,29.59
2018-07-02T10:06:14.502Z,29.52
2018-07-02T10:07:14.500Z,29.64
2018-07-02T10:08:14.497Z,29.65
2018-07-02T10:09:14.378Z,29.57
2018-07-02T10:10:14.416Z,29.71
2018-07-02T10:11:14.375Z,29.79
2018-07-02T10:12:14.371Z,29.74
2018-07-02T10:13:14.255Z,29.86
2018-07-02T10:14:14.254Z,29.84
2018-07-02T10:15:14.254Z,29.92
2018-07-02T10:16:14.134Z,29.84
2018-07-02T10:17:14.133Z,29.94
2018-07-02T10:18:14.138Z,29.87
2018-07-02T10:19:14.131Z,29.95
2018-07-02T10:20:14.067Z,29.99
2018-07-02T10:21:14.011Z,29.99
2018-07-02T10:22:14.013Z,30.06
2018-07-02T10:23:13.895Z,30.13
2018-07-02T10:24:13.891Z,30.08
2018-07-02T10:25:13.891Z,30.16
2018-07-02T10:26:13.848Z,30.13
2018-07-02T10:27:13.774Z,30.21
2018-07-02T10:28:13.770Z,30.24
2018-07-02T10:29:13.859Z,30.35
2018-07-02T10:30:13.650Z,30.35
2018-07-02T10:31:13.733Z,30.38
2018-07-02T10:32:13.653Z,30.40
2018-07-02T10:33:13.529Z,30.39
2018-07-02T10:34:13.531Z,30.38
2018-07-02T10:35:13.529Z,30.38
2018-07-02T10:36:13.529Z,30.44
2018-07-02T10:37:13.409Z,30.49
2018-07-02T10:38:13.407Z,30.52
2018-07-02T10:39:13.408Z,30.61
2018-07-02T10:40:13.366Z,30.70
2018-07-02T10:41:13.286Z,30.65
2018-07-02T10:42:13.288Z,30.83
2018-07-02T10:43:13.286Z,30.81
2018-07-02T10:44:13.168Z,30.86
2018-07-02T10:45:13.165Z,30.93
2018-07-02T10:46:13.169Z,30.92
2018-07-02T10:47:13.049Z,30.92
2018-07-02T10:48:13.050Z,31.00
2018-07-02T10:49:13.044Z,30.96
2018-07-02T10:50:13.049Z,31.11
2018-07-02T10:51:12.924Z,31.18
2018-07-02T10:52:12.930Z,31.28
2018-07-02T10:53:12.924Z,31.22
2018-07-02T10:54:12.805Z,31.17
2018-07-02T10:55:12.802Z,31.15
2018-07-02T10:56:12.881Z,31.23
2018-07-02T10:57:12.801Z,31.15
2018-07-02T10:58:12.682Z,31.25
2018-07-02T10:59:12.687Z,31.29
2018-07-02T11:00:12.681Z,31.35
2018-07-02T11:01:12.639Z,31.36
2018-07-02T11:02:12.560Z,31.41
2018-07-02T11:03:12.565Z,31.48
2018-07-02T11:04:12.564Z,31.62
2018-07-02T11:05:12.440Z,31.60
2018-07-02T11:06:12.441Z,31.70
2018-07-02T11:07:12.439Z,31.78
2018-07-02T11:08:12.439Z,31.85
2018-07-02T11:09:12.318Z,31.87
2018-07-02T11:10:12.320Z,31.90
2018-07-02T11:11:12.323Z,31.86
2018-07-02T11:12:12.199Z,31.86
2018-07-02T11:13:12.199Z,31.89
2018-07-02T11:14:12.196Z,31.92
2018-07-02T11:15:12.201Z,31.98
2018-07-02T11:16:12.078Z,31.90
2018-07-02T11:17:12.148Z,31.90
2018-07-02T11:18:12.076Z,32.02
2018-07-02T11:19:11.980Z,32.15
2018-07-02T11:20:11.956Z,32.17
2018-07-02T11:21:11.960Z,32.29
2018-07-02T11:22:11.956Z,32.44
2018-07-02T11:23:11.838Z,32.59
2018-07-02T11:24:11.839Z,32.76
2018-07-02T11:25:11.849Z,32.78
2018-07-02T11:26:11.793Z,32.79
2018-07-02T11:27:11.716Z,32.90
2018-07-02T11:28:11.714Z,33.01
2018-07-02T11:29:11.716Z,33.12
2018-07-02T11:30:11.595Z,33.32
2018-07-02T11:31:11.597Z,33.51
2018-07-02T11:32:11.595Z,33.51
2018-07-02T11:33:11.593Z,33.73
2018-07-02T11:34:11.473Z,33.77
2018-07-02T11:35:11.472Z,33.88
2018-07-02T11:36:11.481Z,33.98
2018-07-02T11:37:11.475Z,33.79
2018-07-02T11:38:11.360Z,33.75
2018-07-02T11:39:11.354Z,33.70
2018-07-02T11:40:11.354Z,33.79
2018-07-02T11:41:11.231Z,33.77
2018-07-02T11:42:11.231Z,33.81
2018-07-02T11:43:11.234Z,33.82
2018-07-02T11:44:11.313Z,33.98
2018-07-02T11:45:11.111Z,33.91
2018-07-02T11:46:11.111Z,33.98
2018-07-02T11:47:11.112Z,34.07
2018-07-02T11:48:11.067Z,34.11
2018-07-02T11:49:10.990Z,34.16
2018-07-02T11:50:10.990Z,34.33
2018-07-02T11:51:11.011Z,34.38
2018-07-02T11:52:10.869Z,34.44
2018-07-02T11:53:10.870Z,34.63
2018-07-02T11:54:10.869Z,34.58
2018-07-02T11:55:10.874Z,34.66
2018-07-02T11:56:10.749Z,34.75
2018-07-02T11:57:10.750Z,34.88
2018-07-02T11:58:10.749Z,35.00
2018-07-02T11:59:10.753Z,35.04
2018-07-02T12:00:10.630Z,34.85
2018-07-02T12:01:10.629Z,34.85
2018-07-02T12:02:10.630Z,34.85
2018-07-02T12:03:10.510Z,34.94
2018-07-02T12:04:10.513Z,35.04
2018-07-02T12:05:10.583Z,35.15
2018-07-02T12:06:10.508Z,35.20
2018-07-02T12:07:10.390Z,35.26
2018-07-02T12:08:10.387Z,35.26
2018-07-02T12:09:10.387Z,35.45
2018-07-02T12:10:10.386Z,35.64
2018-07-02T12:11:10.270Z,35.76
2018-07-02T12:12:10.264Z,35.94
2018-07-02T12:13:10.266Z,36.11
2018-07-02T12:14:10.270Z,36.43
2018-07-02T12:15:10.147Z,36.33
2018-07-02T12:16:10.145Z,36.39
2018-07-02T12:17:10.151Z,36.45
2018-07-02T12:18:10.107Z,36.70
2018-07-02T12:19:10.023Z,36.80
2018-07-02T12:20:10.023Z,36.70
2018-07-02T12:21:10.027Z,36.72
2018-07-02T12:22:09.903Z,36.62
2018-07-02T12:23:09.911Z,36.65
2018-07-02T12:24:09.905Z,36.45
2018-07-02T12:25:09.904Z,36.33
2018-07-02T12:26:09.843Z,36.57
2018-07-02T12:27:09.794Z,36.69
2018-07-02T12:28:09.780Z,36.82
2018-07-02T12:29:09.780Z,37.09
2018-07-02T12:30:09.662Z,37.40
2018-07-02T12:31:09.664Z,37.41
2018-07-02T12:32:09.660Z,37.73
2018-07-02T12:33:09.737Z,37.95
2018-07-02T12:34:09.549Z,38.22
2018-07-02T12:35:09.542Z,38.32
2018-07-02T12:36:09.541Z,38.14
2018-07-02T12:37:09.547Z,38.44
2018-07-02T12:38:09.421Z,38.54
2018-07-02T12:39:09.419Z,38.63
2018-07-02T12:40:09.419Z,38.76
2018-07-02T12:41:09.423Z,39.07
2018-07-02T12:42:09.298Z,39.34
2018-07-02T12:43:09.298Z,39.60
2018-07-02T12:44:09.298Z,39.68
2018-07-02T12:45:09.299Z,39.94
2018-07-02T12:46:09.189Z,40.35
2018-07-02T12:47:09.180Z,40.48
2018-07-02T12:48:09.176Z,40.83
2018-07-02T12:49:09.177Z,41.14
2018-07-02T12:50:09.062Z,41.22
2018-07-02T12:51:09.056Z,40.99
2018-07-02T12:52:09.054Z,41.03
2018-07-02T12:53:09.055Z,41.15
2018-07-02T12:54:09.047Z,41.27